createdAt,value
2023-02-26T00:01:43.882Z,7.82
2023-02-26T00:04:11.148Z,6.18
2023-02-26T00:06:53.093Z,5.07
2023-02-26T00:09:23.778Z,6.72
2023-02-26T00:11:51.391Z,5.53
2023-02-26T00:14:19.903Z,5.65
2023-02-26T00:17:31.874Z,6.72
2023-02-26T00:19:59.827Z,6.38
2023-02-26T00:22:27.452Z,7.75
2023-02-26T00:24:54.463Z,7.68
2023-02-26T00:27:21.447Z,7.13
2023-02-26T00:29:49.079Z,6.50
2023-02-26T00:32:18.137Z,6.38
2023-02-26T00:34:49.223Z,8.35
2023-02-26T00:38:03.410Z,8.82
2023-02-26T00:40:43.498Z,6.75
2023-02-26T00:43:27.120Z,7.40
2023-02-26T00:46:06.431Z,4.35
2023-02-26T00:49:35.495Z,6.43
2023-02-26T00:52:10.616Z,4.90
2023-02-26T00:54:37.739Z,5.15
2023-02-26T00:57:05.861Z,5.47
2023-02-26T00:59:32.977Z,3.42
2023-02-26T01:02:01.822Z,8.98
2023-02-26T01:04:29.592Z,5.60
2023-02-26T01:06:58.503Z,5.93
2023-02-26T01:09:30.329Z,6.07
2023-02-26T01:12:01.998Z,7.38
2023-02-26T01:14:32.142Z,4.30
2023-02-26T01:17:46.570Z,5.32
2023-02-26T01:20:26.945Z,6.97
2023-02-26T01:23:16.728Z,5.30
2023-02-26T01:26:26.453Z,3.30
2023-02-26T01:28:54.530Z,7.97
2023-02-26T01:32:07.346Z,4.22
2023-02-26T01:34:42.081Z,3.65
2023-02-26T01:37:21.468Z,8.70
2023-02-26T01:40:17.984Z,3.10
2023-02-26T01:42:52.097Z,6.20
2023-02-26T01:45:31.397Z,4.53
2023-02-26T01:48:20.729Z,5.65
2023-02-26T01:50:47.634Z,3.22
2023-02-26T01:53:24.276Z,2.92
2023-02-26T01:56:18.051Z,5.88
2023-02-26T01:58:49.915Z,5.28
2023-02-26T02:01:16.792Z,5.38
2023-02-26T02:03:44.020Z,5.63
2023-02-26T02:06:25.369Z,2.78
2023-02-26T02:08:53.164Z,2.67
2023-02-26T02:11:20.861Z,5.00
2023-02-26T02:14:15.415Z,7.88
2023-02-26T02:17:12.577Z,3.88
2023-02-26T02:20:14.507Z,3.50
2023-02-26T02:22:56.345Z,4.10
2023-02-26T02:26:10.180Z,2.00
2023-02-26T02:28:51.413Z,5.00
2023-02-26T02:31:36.949Z,1.67
2023-02-26T02:34:36.971Z,4.45
2023-02-26T02:37:25.437Z,5.95
2023-02-26T02:40:08.147Z,5.25
2023-02-26T02:43:04.618Z,4.22
2023-02-26T02:46:03.757Z,6.10
2023-02-26T02:48:53.266Z,4.15
2023-02-26T02:51:32.714Z,3.10
2023-02-26T02:54:17.787Z,2.85
2023-02-26T02:57:09.367Z,4.43
2023-02-26T02:59:51.378Z,3.83
2023-02-26T03:02:36.586Z,5.95
2023-02-26T03:05:05.671Z,3.72
2023-02-26T03:07:41.769Z,3.35
2023-02-26T03:10:09.618Z,3.03
2023-02-26T03:12:37.126Z,2.47
2023-02-26T03:15:06.262Z,2.70
2023-02-26T03:17:50.262Z,3.40
2023-02-26T03:20:34.186Z,4.13
2023-02-26T03:23:19.644Z,2.63
2023-02-26T03:26:00.785Z,3.13
2023-02-26T03:29:32.440Z,5.22
2023-02-26T03:32:11.624Z,3.80
2023-02-26T03:35:13.102Z,1.95
2023-02-26T03:37:45.568Z,2.38
2023-02-26T03:40:31.536Z,3.28
2023-02-26T03:43:08.473Z,2.55
2023-02-26T03:45:40.971Z,2.15
2023-02-26T03:48:13.636Z,3.40
2023-02-26T03:50:51.421Z,6.95
2023-02-26T03:54:05.490Z,3.80
2023-02-26T03:56:43.032Z,7.38
2023-02-26T03:59:35.481Z,1.55
2023-02-26T04:02:41.875Z,3.78
2023-02-26T04:05:29.279Z,4.32
2023-02-26T04:07:58.119Z,3.20
2023-02-26T04:10:39.742Z,3.10
2023-02-26T04:13:07.651Z,3.50
2023-02-26T04:15:34.765Z,4.00
2023-02-26T04:18:01.785Z,5.55
2023-02-26T04:20:29.601Z,2.92
2023-02-26T04:22:56.559Z,5.03
2023-02-26T04:25:24.149Z,5.90
2023-02-26T04:27:52.747Z,3.08
2023-02-26T04:30:21.287Z,1.60
2023-02-26T04:32:48.624Z,5.28
2023-02-26T04:35:16.119Z,4.82
2023-02-26T04:37:42.996Z,7.55
2023-02-26T04:40:11.807Z,2.42
2023-02-26T04:42:39.276Z,3.63
2023-02-26T04:45:07.114Z,1.90
2023-02-26T04:47:37.065Z,3.15
2023-02-26T04:50:05.101Z,4.70
2023-02-26T04:52:32.277Z,5.07
2023-02-26T04:54:59.354Z,1.92
2023-02-26T04:57:26.827Z,1.40
2023-02-26T04:59:55.772Z,3.97
2023-02-26T05:02:27.373Z,1.60
2023-02-26T05:04:54.243Z,4.15
2023-02-26T05:07:21.115Z,5.28
2023-02-26T05:09:49.532Z,2.70
2023-02-26T05:12:16.446Z,3.85
2023-02-26T05:14:43.443Z,3.22
2023-02-26T05:17:10.334Z,1.83
2023-02-26T05:19:37.310Z,3.47
2023-02-26T05:22:05.124Z,3.72
2023-02-26T05:24:31.972Z,3.70
2023-02-26T05:27:00.310Z,2.78
2023-02-26T05:29:27.548Z,5.45
2023-02-26T05:31:55.451Z,4.60
2023-02-26T05:34:22.526Z,2.20
2023-02-26T05:36:49.407Z,6.32
2023-02-26T05:39:16.298Z,2.03
2023-02-26T05:41:43.269Z,5.30
2023-02-26T05:44:10.210Z,3.08
2023-02-26T05:46:37.227Z,2.25
2023-02-26T05:49:04.380Z,3.15
2023-02-26T05:51:31.517Z,2.63
2023-02-26T05:53:58.499Z,4.65
2023-02-26T05:56:25.714Z,2.08
2023-02-26T05:58:52.933Z,3.47
2023-02-26T06:01:20.846Z,4.63
2023-02-26T06:03:50.420Z,7.72
2023-02-26T06:06:18.494Z,8.18
2023-02-26T06:08:46.286Z,5.60
2023-02-26T06:11:14.044Z,6.50
2023-02-26T06:13:43.666Z,5.55
2023-02-26T06:16:10.604Z,6.55
2023-02-26T06:18:37.439Z,6.57
2023-02-26T06:21:04.700Z,7.38
2023-02-26T06:23:31.585Z,3.00
2023-02-26T06:25:59.828Z,4.68
2023-02-26T06:28:27.200Z,2.40
2023-02-26T06:30:54.789Z,2.45
2023-02-26T06:33:21.923Z,6.20
2023-02-26T06:35:49.593Z,4.20
2023-02-26T06:38:17.852Z,3.40
2023-02-26T06:41:37.657Z,3.00
2023-02-26T06:44:05.355Z,5.32
2023-02-26T06:46:32.704Z,3.00
2023-02-26T06:49:00.367Z,3.05
2023-02-26T06:51:31.169Z,4.65
2023-02-26T06:53:58.254Z,2.30
2023-02-26T06:56:25.827Z,3.22
2023-02-26T06:58:53.309Z,5.10
2023-02-26T07:01:20.577Z,2.95
2023-02-26T07:03:47.435Z,4.72
2023-02-26T07:06:26.911Z,3.53
2023-02-26T07:08:55.480Z,2.55
2023-02-26T07:11:22.861Z,4.57
2023-02-26T07:13:51.539Z,2.92
2023-02-26T07:16:18.993Z,4.97
2023-02-26T07:18:45.925Z,4.68
2023-02-26T07:21:12.812Z,1.67
2023-02-26T07:23:39.727Z,3.47
2023-02-26T07:26:07.308Z,3.28
2023-02-26T07:28:34.879Z,5.63
2023-02-26T07:31:01.797Z,3.85
2023-02-26T07:33:29.118Z,4.88
2023-02-26T07:35:56.083Z,4.72
2023-02-26T07:38:23.065Z,1.50
2023-02-26T07:40:50.032Z,2.55
2023-02-26T07:43:17.060Z,3.25
2023-02-26T07:45:43.921Z,3.97
2023-02-26T07:48:10.775Z,3.20
2023-02-26T07:50:37.759Z,3.10
2023-02-26T07:53:04.687Z,7.63
2023-02-26T07:55:31.598Z,2.90
2023-02-26T07:57:59.051Z,2.40
2023-02-26T08:00:26.015Z,4.35
2023-02-26T08:02:53.051Z,3.25
2023-02-26T08:05:20.087Z,2.47
2023-02-26T08:07:47.105Z,5.50
2023-02-26T08:10:15.295Z,1.83
2023-02-26T08:12:43.306Z,3.33
2023-02-26T08:15:13.180Z,2.70
2023-02-26T08:17:41.778Z,2.08
2023-02-26T08:20:10.125Z,3.35
2023-02-26T08:22:37.367Z,1.73
2023-02-26T08:25:04.881Z,4.82
2023-02-26T08:27:31.694Z,4.07
2023-02-26T08:29:58.661Z,4.90
2023-02-26T08:32:28.981Z,4.65
2023-02-26T08:34:55.902Z,1.83
2023-02-26T08:37:25.802Z,2.78
2023-02-26T08:39:56.108Z,2.88
2023-02-26T08:42:23.196Z,5.85
2023-02-26T08:44:50.419Z,5.13
2023-02-26T08:47:28.246Z,2.45
2023-02-26T08:49:55.898Z,4.43
2023-02-26T08:52:23.383Z,4.63
2023-02-26T08:54:50.673Z,3.20
2023-02-26T08:57:21.002Z,1.88
2023-02-26T08:59:48.334Z,1.35
2023-02-26T09:02:15.491Z,2.45
2023-02-26T09:04:42.652Z,3.13
2023-02-26T09:07:09.890Z,2.05
2023-02-26T09:09:37.029Z,2.85
2023-02-26T09:12:08.140Z,3.97
2023-02-26T09:14:38.542Z,3.88
2023-02-26T09:17:05.692Z,3.33
2023-02-26T09:19:40.488Z,3.42
2023-02-26T09:22:07.711Z,1.48
2023-02-26T09:27:29.737Z,5.57
2023-02-26T09:29:57.100Z,3.15
2023-02-26T09:32:36.672Z,3.90
2023-02-26T09:35:05.744Z,2.83
2023-02-26T09:41:31.282Z,0.90
2023-02-26T09:47:27.059Z,6.95
2023-02-26T09:50:26.388Z,2.33
2023-02-26T09:53:06.668Z,1.63
2023-02-26T09:55:50.119Z,3.15
2023-02-26T10:01:44.097Z,1.92
2023-02-26T10:04:59.845Z,2.78
2023-02-26T10:08:05.550Z,2.00
2023-02-26T10:11:11.722Z,4.65
2023-02-26T10:14:13.452Z,4.00
2023-02-26T10:16:47.692Z,3.08
2023-02-26T10:19:29.184Z,1.92
2023-02-26T10:22:53.561Z,4.97
2023-02-26T10:29:08.353Z,2.00
2023-02-26T10:32:26.419Z,2.35
2023-02-26T10:35:15.688Z,2.30
2023-02-26T10:38:04.546Z,2.63
2023-02-26T10:40:44.132Z,1.85
2023-02-26T10:43:27.264Z,2.78
2023-02-26T10:46:45.415Z,1.60
2023-02-26T10:49:52.887Z,1.17
2023-02-26T10:52:25.098Z,2.13
2023-02-26T10:55:26.286Z,2.35
2023-02-26T10:58:16.816Z,3.17
2023-02-26T11:00:53.791Z,1.65
2023-02-26T11:03:34.564Z,3.28
2023-02-26T11:06:04.708Z,1.15
2023-02-26T11:08:42.079Z,2.80
2023-02-26T11:11:09.588Z,2.33
2023-02-26T11:13:39.212Z,3.38
2023-02-26T11:16:15.669Z,3.45
2023-02-26T11:18:50.500Z,2.00
2023-02-26T11:21:26.847Z,2.63
2023-02-26T11:24:05.228Z,1.23
2023-02-26T11:26:36.818Z,2.70
2023-02-26T11:29:05.354Z,2.03
2023-02-26T11:31:33.524Z,1.38
2023-02-26T11:34:05.893Z,1.35
2023-02-26T11:36:37.712Z,1.42
2023-02-26T11:39:25.025Z,7.05
2023-02-26T11:41:58.129Z,0.55
2023-02-26T11:44:38.723Z,2.90
2023-02-26T11:47:13.710Z,2.28
2023-02-26T11:52:21.559Z,1.98
2023-02-26T11:54:56.222Z,1.52
2023-02-26T11:57:29.790Z,4.65
2023-02-26T12:00:00.373Z,3.95
2023-02-26T12:02:35.258Z,3.55
2023-02-26T12:05:07.047Z,2.53
2023-02-26T12:07:34.231Z,3.20
2023-02-26T12:10:01.535Z,2.97
2023-02-26T12:12:50.807Z,3.20
2023-02-26T12:15:39.078Z,3.50
2023-02-26T12:18:40.571Z,3.60
2023-02-26T12:21:44.552Z,1.17
2023-02-26T12:24:52.331Z,1.58
2023-02-26T12:28:16.972Z,2.85
2023-02-26T12:31:19.805Z,1.17
2023-02-26T12:34:32.304Z,3.47
2023-02-26T12:37:31.895Z,2.25
2023-02-26T12:40:30.731Z,1.38
2023-02-26T12:43:14.894Z,1.25
2023-02-26T12:46:08.579Z,1.13
2023-02-26T12:49:21.088Z,1.30
2023-02-26T12:52:40.732Z,1.65
2023-02-26T12:55:48.066Z,4.95
2023-02-26T12:58:45.983Z,1.02
2023-02-26T13:01:56.027Z,1.75
2023-02-26T13:05:00.166Z,2.65
2023-02-26T13:07:56.556Z,2.30
2023-02-26T13:11:03.889Z,0.73
2023-02-26T13:13:53.755Z,2.53
2023-02-26T13:16:45.664Z,2.90
2023-02-26T13:19:24.073Z,3.65
2023-02-26T13:22:00.842Z,1.85
2023-02-26T13:27:07.768Z,2.47
2023-02-26T13:29:48.396Z,1.77
2023-02-26T13:32:35.941Z,2.08
2023-02-26T13:35:28.048Z,1.75
2023-02-26T13:38:00.423Z,2.15
2023-02-26T13:41:13.280Z,2.38
2023-02-26T13:43:55.327Z,1.50
2023-02-26T13:46:55.667Z,1.73
2023-02-26T13:49:49.047Z,0.73
2023-02-26T13:52:32.776Z,2.63
2023-02-26T13:54:59.989Z,2.00
2023-02-26T13:57:36.725Z,3.28
2023-02-26T14:00:36.407Z,1.75
2023-02-26T14:03:50.378Z,1.55
2023-02-26T14:06:44.622Z,1.75
2023-02-26T14:09:23.724Z,2.67
2023-02-26T14:12:13.039Z,1.50
2023-02-26T14:14:43.979Z,3.17
2023-02-26T14:17:11.241Z,2.15
2023-02-26T14:19:54.061Z,2.58
2023-02-26T14:22:35.925Z,1.42
2023-02-26T14:25:14.846Z,2.20
2023-02-26T14:27:44.941Z,4.35
2023-02-26T14:30:11.765Z,1.60
2023-02-26T14:32:57.608Z,2.00
2023-02-26T14:35:35.109Z,2.50
2023-02-26T14:38:20.324Z,1.92
2023-02-26T14:40:54.295Z,2.80
2023-02-26T14:43:58.613Z,2.10
2023-02-26T14:46:26.117Z,2.17
2023-02-26T14:48:53.254Z,5.07
2023-02-26T14:51:54.700Z,3.05
2023-02-26T14:54:51.318Z,2.92
2023-02-26T14:57:51.669Z,3.85
2023-02-26T15:00:40.654Z,4.07
2023-02-26T15:03:23.061Z,2.70
2023-02-26T15:06:18.014Z,2.08
2023-02-26T15:09:21.747Z,1.20
2023-02-26T15:12:32.866Z,1.45
2023-02-26T15:15:33.354Z,2.35
2023-02-26T15:18:50.278Z,3.25
2023-02-26T15:21:20.810Z,1.80
2023-02-26T15:23:55.364Z,2.25
2023-02-26T15:26:29.602Z,1.48
2023-02-26T15:28:59.335Z,2.10
2023-02-26T15:31:40.204Z,1.98
2023-02-26T15:34:12.515Z,1.73
2023-02-26T15:36:45.990Z,1.65
2023-02-26T15:39:17.386Z,1.52
2023-02-26T15:41:50.162Z,2.30
2023-02-26T15:44:27.270Z,1.98
2023-02-26T15:47:01.274Z,1.20
2023-02-26T15:49:33.014Z,1.17
2023-02-26T15:52:02.743Z,1.50
2023-02-26T15:54:56.869Z,6.22
2023-02-26T15:57:26.870Z,2.63
2023-02-26T16:00:06.891Z,3.85
2023-02-26T16:02:41.104Z,3.67
2023-02-26T16:05:10.822Z,1.95
2023-02-26T16:07:37.730Z,3.25
2023-02-26T16:10:15.362Z,2.13
2023-02-26T16:12:49.064Z,5.10
2023-02-26T16:15:33.812Z,1.88
2023-02-26T16:18:06.983Z,2.13
2023-02-26T16:20:43.884Z,3.13
2023-02-26T16:23:20.020Z,1.75
2023-02-26T16:25:58.017Z,4.47
2023-02-26T16:28:35.063Z,2.70
2023-02-26T16:31:05.838Z,2.20
2023-02-26T16:33:34.511Z,2.63
2023-02-26T16:36:15.691Z,1.40
2023-02-26T16:38:50.034Z,2.13
2023-02-26T16:41:23.696Z,2.25
2023-02-26T16:43:57.418Z,1.98
2023-02-26T16:46:45.236Z,3.20
2023-02-26T16:49:26.075Z,3.30
2023-02-26T16:51:56.018Z,4.85
2023-02-26T16:54:28.261Z,2.80
2023-02-26T16:57:34.886Z,2.05
2023-02-26T17:00:09.467Z,1.98
2023-02-26T17:02:38.864Z,7.93
2023-02-26T17:05:26.341Z,1.80
2023-02-26T17:08:14.895Z,3.38
2023-02-26T17:10:54.086Z,1.60
2023-02-26T17:13:31.430Z,2.85
2023-02-26T17:16:10.588Z,3.83
2023-02-26T17:18:37.700Z,5.07
2023-02-26T17:21:05.663Z,3.28
2023-02-26T17:23:37.645Z,6.15
2023-02-26T17:26:06.195Z,3.55
2023-02-26T17:28:40.452Z,4.25
2023-02-26T17:31:08.538Z,3.80
2023-02-26T17:33:38.074Z,3.80
2023-02-26T17:36:05.819Z,7.38
2023-02-26T17:38:33.417Z,5.85
2023-02-26T17:41:00.757Z,7.43
2023-02-26T17:43:28.727Z,3.83
2023-02-26T17:45:56.047Z,7.75
2023-02-26T17:48:23.298Z,5.55
2023-02-26T17:50:58.265Z,10.70
2023-02-26T17:56:00.541Z,6.00
2023-02-26T17:58:33.919Z,5.55
2023-02-26T18:01:03.557Z,5.78
2023-02-26T18:03:30.820Z,6.57
2023-02-26T18:05:58.100Z,6.30
2023-02-26T18:08:31.873Z,8.45
2023-02-26T18:11:01.757Z,7.47
2023-02-26T18:13:30.558Z,7.18
2023-02-26T18:16:00.945Z,7.55
2023-02-26T18:18:29.638Z,6.53
2023-02-26T18:20:57.072Z,11.62
2023-02-26T18:23:25.512Z,5.60
2023-02-26T18:25:54.757Z,7.00
2023-02-26T18:28:28.325Z,7.20
2023-02-26T18:30:57.674Z,7.30
2023-02-26T18:33:28.206Z,9.45
2023-02-26T18:36:05.930Z,9.18
2023-02-26T18:38:34.517Z,9.00
2023-02-26T18:41:02.172Z,12.57
2023-02-26T18:43:29.936Z,12.20
2023-02-26T18:46:01.127Z,12.07
2023-02-26T18:48:28.695Z,11.85
2023-02-26T18:50:55.879Z,15.63
2023-02-26T18:53:23.929Z,14.90
2023-02-26T18:55:53.015Z,15.98
2023-02-26T18:58:22.060Z,10.90
2023-02-26T19:00:49.271Z,12.07
2023-02-26T19:03:16.402Z,10.52
2023-02-26T19:05:43.680Z,9.70
2023-02-26T19:08:11.628Z,8.73
2023-02-26T19:10:39.150Z,9.73
2023-02-26T19:13:06.329Z,8.13
2023-02-26T19:15:33.494Z,7.93
2023-02-26T19:18:00.770Z,6.85
2023-02-26T19:20:28.128Z,5.80
2023-02-26T19:22:55.615Z,6.88
2023-02-26T19:25:27.147Z,6.07
2023-02-26T19:27:55.825Z,7.38
2023-02-26T19:30:26.543Z,6.00
2023-02-26T19:32:54.947Z,6.22
2023-02-26T19:35:23.102Z,7.82
2023-02-26T19:37:50.288Z,6.30
2023-02-26T19:40:20.522Z,12.27
2023-02-26T19:42:48.460Z,9.25
2023-02-26T19:45:17.255Z,9.05
2023-02-26T19:47:45.415Z,5.72
2023-02-26T19:50:19.103Z,8.45
2023-02-26T19:52:46.683Z,7.75
2023-02-26T19:55:16.590Z,7.93
2023-02-26T19:57:44.387Z,9.32
2023-02-26T20:00:15.090Z,5.88
2023-02-26T20:02:43.439Z,6.88
2023-02-26T20:05:16.036Z,5.95
2023-02-26T20:07:48.228Z,5.00
2023-02-26T20:10:16.909Z,5.10
2023-02-26T20:12:45.820Z,5.93
2023-02-26T20:15:14.088Z,7.57
2023-02-26T20:17:41.747Z,5.13
2023-02-26T20:20:10.212Z,6.15
2023-02-26T20:22:40.344Z,5.97
2023-02-26T20:25:09.088Z,4.90
2023-02-26T20:27:39.254Z,8.43
2023-02-26T20:30:08.032Z,8.10
2023-02-26T20:32:35.488Z,6.57
2023-02-26T20:35:03.628Z,10.07
2023-02-26T20:37:31.764Z,6.20
2023-02-26T20:40:02.658Z,6.82
2023-02-26T20:42:30.333Z,4.30
2023-02-26T20:44:57.652Z,10.98
2023-02-26T20:47:24.776Z,5.72
2023-02-26T20:49:51.976Z,11.00
2023-02-26T20:52:19.232Z,8.57
2023-02-26T20:54:46.239Z,8.75
2023-02-26T20:57:13.283Z,33.15
2023-02-26T20:59:40.157Z,13.35
2023-02-26T21:02:07.755Z,10.38
2023-02-26T21:04:37.963Z,7.50
2023-02-26T21:07:17.546Z,5.20
2023-02-26T21:09:48.075Z,6.03
2023-02-26T21:12:16.894Z,5.82
2023-02-26T21:14:44.393Z,5.38
2023-02-26T21:17:11.711Z,7.15
2023-02-26T21:19:38.811Z,7.43
2023-02-26T21:22:05.822Z,6.50
2023-02-26T21:24:32.830Z,11.48
2023-02-26T21:26:59.926Z,9.05
2023-02-26T21:29:26.840Z,7.95
2023-02-26T21:31:56.970Z,7.97
2023-02-26T21:34:33.495Z,5.97
2023-02-26T21:37:11.868Z,7.10
2023-02-26T21:39:39.318Z,6.65
2023-02-26T21:42:08.975Z,4.85
2023-02-26T21:44:36.437Z,5.82
2023-02-26T21:47:04.199Z,4.75
2023-02-26T21:49:31.939Z,4.88
2023-02-26T21:52:01.868Z,4.00
2023-02-26T21:54:30.202Z,5.47
2023-02-26T21:56:57.638Z,6.07
2023-02-26T21:59:24.894Z,3.97
2023-02-26T22:01:53.394Z,3.65
2023-02-26T22:04:20.654Z,4.95
2023-02-26T22:06:47.804Z,3.85
2023-02-26T22:09:14.926Z,4.57
2023-02-26T22:11:41.817Z,6.00
2023-02-26T22:14:08.907Z,3.80
2023-02-26T22:16:35.905Z,6.85
2023-02-26T22:19:02.941Z,4.70
2023-02-26T22:21:29.915Z,3.03
2023-02-26T22:23:57.060Z,3.90
2023-02-26T22:26:24.402Z,5.82
2023-02-26T22:28:51.655Z,4.45
2023-02-26T22:31:19.062Z,6.85
2023-02-26T22:33:46.153Z,3.35
2023-02-26T22:36:13.389Z,3.42
2023-02-26T22:38:40.579Z,5.65
2023-02-26T22:41:07.574Z,5.03
2023-02-26T22:43:34.502Z,5.55
2023-02-26T22:46:01.920Z,5.40
2023-02-26T22:48:29.004Z,7.55
2023-02-26T22:50:56.082Z,4.35
2023-02-26T22:53:23.041Z,4.30
2023-02-26T22:55:53.686Z,9.73
2023-02-26T22:58:20.880Z,7.65
2023-02-26T23:00:48.011Z,6.10
2023-02-26T23:03:15.246Z,8.02
2023-02-26T23:05:42.229Z,6.38
2023-02-26T23:08:09.600Z,6.47
2023-02-26T23:10:36.833Z,8.75
2023-02-26T23:13:04.076Z,10.75
2023-02-26T23:15:31.199Z,8.13
2023-02-26T23:17:58.344Z,7.20
2023-02-26T23:20:25.526Z,7.40
2023-02-26T23:22:52.496Z,6.75
2023-02-26T23:25:19.628Z,3.95
2023-02-26T23:27:46.921Z,6.40
2023-02-26T23:30:14.643Z,5.10
2023-02-26T23:32:41.860Z,3.97
2023-02-26T23:35:09.748Z,4.38
2023-02-26T23:37:36.760Z,4.90
2023-02-26T23:40:04.424Z,5.50
2023-02-26T23:42:31.494Z,5.50
2023-02-26T23:44:58.493Z,7.00
2023-02-26T23:47:25.562Z,8.55
2023-02-26T23:49:52.715Z,5.78
2023-02-26T23:52:20.072Z,4.22
2023-02-26T23:54:47.061Z,4.38
2023-02-26T23:57:14.276Z,4.75
2023-02-26T23:59:41.205Z,2.90
